createdAt,value
2023-05-14T00:00:16.764Z,10.38
2023-05-14T00:01:17.127Z,10.38
2023-05-14T00:02:17.602Z,10.37
2023-05-14T00:03:17.935Z,10.37
2023-05-14T00:04:18.356Z,10.35
2023-05-14T00:05:18.654Z,10.33
2023-05-14T00:06:18.944Z,10.31
2023-05-14T00:07:19.312Z,10.31
2023-05-14T00:08:19.681Z,10.35
2023-05-14T00:09:20.068Z,10.37
2023-05-14T00:10:20.512Z,10.40
2023-05-14T00:11:20.776Z,10.38
2023-05-14T00:12:21.158Z,10.38
2023-05-14T00:13:21.490Z,10.40
2023-05-14T00:14:21.907Z,10.38
2023-05-14T00:15:22.214Z,10.38
2023-05-14T00:16:22.650Z,10.37
2023-05-14T00:17:22.945Z,10.34
2023-05-14T00:18:23.348Z,10.33
2023-05-14T00:19:23.721Z,10.26
2023-05-14T00:20:24.241Z,10.22
2023-05-14T00:21:24.414Z,10.15
2023-05-14T00:22:24.775Z,10.09
2023-05-14T00:23:25.149Z,10.05
2023-05-14T00:24:25.530Z,10.04
2023-05-14T00:25:25.982Z,10.01
2023-05-14T00:26:26.230Z,9.99
2023-05-14T00:27:26.592Z,9.99
2023-05-14T00:28:26.956Z,9.99
2023-05-14T00:29:27.314Z,9.99
2023-05-14T00:30:27.736Z,9.99
2023-05-14T00:31:28.130Z,10.02
2023-05-14T00:32:28.438Z,10.02
2023-05-14T00:33:28.777Z,10.04
2023-05-14T00:34:29.184Z,10.04
2023-05-14T00:35:29.544Z,10.05
2023-05-14T00:36:29.891Z,10.09
2023-05-14T00:37:30.268Z,10.10
2023-05-14T00:38:30.616Z,10.12
2023-05-14T00:39:30.960Z,10.10
2023-05-14T00:40:31.294Z,10.04
2023-05-14T00:41:31.657Z,9.99
2023-05-14T00:42:32.003Z,9.95
2023-05-14T00:43:32.350Z,9.87
2023-05-14T00:44:32.754Z,9.80
2023-05-14T00:45:33.063Z,9.74
2023-05-14T00:46:33.512Z,9.69
2023-05-14T00:47:33.864Z,9.64
2023-05-14T00:48:34.159Z,9.58
2023-05-14T00:49:34.545Z,9.54
2023-05-14T00:50:34.848Z,9.48
2023-05-14T00:51:35.200Z,9.44
2023-05-14T00:52:35.590Z,9.40
2023-05-14T00:53:35.885Z,9.40
2023-05-14T00:54:36.277Z,9.40
2023-05-14T00:55:36.620Z,9.37
2023-05-14T00:56:36.960Z,9.37
2023-05-14T00:57:37.317Z,9.39
2023-05-14T00:58:37.662Z,9.43
2023-05-14T00:59:38.057Z,9.46
2023-05-14T01:00:38.377Z,9.47
2023-05-14T01:01:38.720Z,9.44
2023-05-14T01:02:39.133Z,9.43
2023-05-14T01:03:39.527Z,9.43
2023-05-14T01:04:39.770Z,9.44
2023-05-14T01:05:40.125Z,9.41
2023-05-14T01:06:40.494Z,9.39
2023-05-14T01:07:40.835Z,9.41
2023-05-14T01:08:41.217Z,9.40
2023-05-14T01:09:41.582Z,9.39
2023-05-14T01:10:41.891Z,9.39
2023-05-14T01:11:42.248Z,9.44
2023-05-14T01:12:42.576Z,9.64
2023-05-14T01:13:42.912Z,9.77
2023-05-14T01:14:43.339Z,9.80
2023-05-14T01:15:43.634Z,9.74
2023-05-14T01:16:44.044Z,9.64
2023-05-14T01:17:44.382Z,9.40
2023-05-14T01:18:44.680Z,9.26
2023-05-14T01:19:45.041Z,9.22
2023-05-14T01:20:45.380Z,9.25
2023-05-14T01:21:45.732Z,9.28
2023-05-14T01:22:46.094Z,9.39
2023-05-14T01:23:46.453Z,9.43
2023-05-14T01:24:46.827Z,9.43
2023-05-14T01:25:47.186Z,9.44
2023-05-14T01:26:47.589Z,9.48
2023-05-14T01:27:47.877Z,9.56
2023-05-14T01:28:48.239Z,9.68
2023-05-14T01:29:48.613Z,9.68
2023-05-14T01:30:48.984Z,9.36
2023-05-14T01:31:49.343Z,9.00
2023-05-14T01:32:49.802Z,8.85
2023-05-14T01:33:50.029Z,8.78
2023-05-14T01:34:50.392Z,8.70
2023-05-14T01:35:50.766Z,8.61
2023-05-14T01:36:51.131Z,8.58
2023-05-14T01:37:51.459Z,8.60
2023-05-14T01:38:51.863Z,8.71
2023-05-14T01:39:52.168Z,8.84
2023-05-14T01:40:52.546Z,9.00
2023-05-14T01:41:52.906Z,9.03
2023-05-14T01:42:53.266Z,9.08
2023-05-14T01:43:53.616Z,9.11
2023-05-14T01:44:53.957Z,9.16
2023-05-14T01:45:54.460Z,9.18
2023-05-14T01:46:54.664Z,9.19
2023-05-14T01:47:55.041Z,9.25
2023-05-14T01:48:55.425Z,9.29
2023-05-14T01:49:55.797Z,9.36
2023-05-14T01:50:56.088Z,9.41
2023-05-14T01:51:56.441Z,9.46
2023-05-14T01:52:57.010Z,9.46
2023-05-14T01:53:57.150Z,9.51
2023-05-14T01:54:57.506Z,9.58
2023-05-14T01:55:57.855Z,9.64
2023-05-14T01:56:58.189Z,9.68
2023-05-14T01:57:58.636Z,9.74
2023-05-14T01:58:58.885Z,9.79
2023-05-14T01:59:59.257Z,9.82
2023-05-14T02:00:59.638Z,9.84
2023-05-14T02:02:00.022Z,9.91
2023-05-14T02:03:00.337Z,9.89
2023-05-14T02:04:00.661Z,9.95
2023-05-14T02:05:01.014Z,9.97
2023-05-14T02:06:01.331Z,9.97
2023-05-14T02:07:01.679Z,9.98
2023-05-14T02:08:02.056Z,10.01
2023-05-14T02:09:02.417Z,10.02
2023-05-14T02:10:02.797Z,10.09
2023-05-14T02:11:03.120Z,10.13
2023-05-14T02:12:03.467Z,10.33
2023-05-14T02:13:03.861Z,10.42
2023-05-14T02:14:04.221Z,10.44
2023-05-14T02:15:04.563Z,10.41
2023-05-14T02:16:04.971Z,10.41
2023-05-14T02:17:05.298Z,10.41
2023-05-14T02:18:05.680Z,10.40
2023-05-14T02:19:06.057Z,10.38
2023-05-14T02:20:06.402Z,10.41
2023-05-14T02:21:06.800Z,10.40
2023-05-14T02:22:07.140Z,10.38
2023-05-14T02:23:07.488Z,10.40
2023-05-14T02:24:07.876Z,10.42
2023-05-14T02:25:08.250Z,10.46
2023-05-14T02:26:08.580Z,10.49
2023-05-14T02:27:08.956Z,10.54
2023-05-14T02:28:09.334Z,10.53
2023-05-14T02:29:09.662Z,10.49
2023-05-14T02:30:10.135Z,10.49
2023-05-14T02:31:10.495Z,10.48
2023-05-14T02:32:10.879Z,10.48
2023-05-14T02:33:11.289Z,10.41
2023-05-14T02:34:11.534Z,10.35
2023-05-14T02:35:11.943Z,10.23
2023-05-14T02:36:12.252Z,10.20
2023-05-14T02:37:12.530Z,10.15
2023-05-14T02:38:12.758Z,10.07
2023-05-14T02:39:13.060Z,9.92
2023-05-14T02:40:13.376Z,9.77
2023-05-14T02:41:13.619Z,9.68
2023-05-14T02:42:13.923Z,9.64
2023-05-14T02:43:14.336Z,9.62
2023-05-14T02:44:14.573Z,9.59
2023-05-14T02:45:14.869Z,9.62
2023-05-14T02:46:15.198Z,9.64
2023-05-14T02:47:15.394Z,9.68
2023-05-14T02:48:15.672Z,9.73
2023-05-14T02:49:15.990Z,9.76
2023-05-14T02:50:16.322Z,9.82
2023-05-14T02:51:16.511Z,9.80
2023-05-14T02:52:16.797Z,9.80
2023-05-14T02:53:17.139Z,9.79
2023-05-14T02:54:17.427Z,9.76
2023-05-14T02:55:17.561Z,9.74
2023-05-14T02:56:17.796Z,9.74
2023-05-14T02:57:18.131Z,9.72
2023-05-14T02:58:18.395Z,9.69
2023-05-14T02:59:18.564Z,9.62
2023-05-14T03:00:18.883Z,9.56
2023-05-14T03:01:19.211Z,9.48
2023-05-14T03:02:19.496Z,9.37
2023-05-14T03:03:19.736Z,9.25
2023-05-14T03:04:20.002Z,9.22
2023-05-14T03:05:20.273Z,9.14
2023-05-14T03:06:20.567Z,9.06
2023-05-14T03:07:20.869Z,9.02
2023-05-14T03:08:21.141Z,8.99
2023-05-14T03:09:21.422Z,8.94
2023-05-14T03:10:22.041Z,8.92
2023-05-14T03:11:21.892Z,8.87
2023-05-14T03:12:22.148Z,8.87
2023-05-14T03:13:22.322Z,8.85
2023-05-14T03:14:22.609Z,8.84
2023-05-14T03:15:22.823Z,8.85
2023-05-14T03:16:23.090Z,8.84
2023-05-14T03:17:23.354Z,8.82
2023-05-14T03:18:23.605Z,8.76
2023-05-14T03:19:23.952Z,8.73
2023-05-14T03:20:24.362Z,8.66
2023-05-14T03:21:24.243Z,8.55
2023-05-14T03:22:24.568Z,8.48
2023-05-14T03:23:24.713Z,8.44
2023-05-14T03:24:24.901Z,8.42
2023-05-14T03:25:25.071Z,8.38
2023-05-14T03:26:25.248Z,8.36
2023-05-14T03:27:25.417Z,8.36
2023-05-14T03:28:25.595Z,8.34
2023-05-14T03:29:25.774Z,8.34
2023-05-14T03:30:26.242Z,8.34
2023-05-14T03:31:26.284Z,8.33
2023-05-14T03:32:26.306Z,8.31
2023-05-14T03:33:26.465Z,8.33
2023-05-14T03:34:26.761Z,8.33
2023-05-14T03:35:26.930Z,8.33
2023-05-14T03:36:27.070Z,8.33
2023-05-14T03:37:27.250Z,8.33
2023-05-14T03:38:27.448Z,8.34
2023-05-14T03:39:27.592Z,8.36
2023-05-14T03:40:27.787Z,8.36
2023-05-14T03:41:27.922Z,8.34
2023-05-14T03:42:28.143Z,8.37
2023-05-14T03:43:28.269Z,8.42
2023-05-14T03:44:28.435Z,8.44
2023-05-14T03:45:28.666Z,8.44
2023-05-14T03:46:28.776Z,8.42
2023-05-14T03:47:28.976Z,8.42
2023-05-14T03:48:29.192Z,8.42
2023-05-14T03:49:29.297Z,8.41
2023-05-14T03:50:29.585Z,8.42
2023-05-14T03:51:29.654Z,8.42
2023-05-14T03:52:29.976Z,8.42
2023-05-14T03:53:30.092Z,8.45
2023-05-14T03:54:30.269Z,8.45
2023-05-14T03:55:30.618Z,8.45
2023-05-14T03:56:30.872Z,8.45
2023-05-14T03:57:31.036Z,8.46
2023-05-14T03:58:31.201Z,8.49
2023-05-14T03:59:31.372Z,8.52
2023-05-14T04:00:31.599Z,8.49
2023-05-14T04:01:31.742Z,8.52
2023-05-14T04:02:32.023Z,8.52
2023-05-14T04:03:32.465Z,8.55
2023-05-14T04:04:32.453Z,8.58
2023-05-14T04:05:32.720Z,8.64
2023-05-14T04:06:32.885Z,8.73
2023-05-14T04:07:33.182Z,8.76
2023-05-14T04:08:33.357Z,8.85
2023-05-14T04:09:33.656Z,9.00
2023-05-14T04:10:33.867Z,9.19
2023-05-14T04:11:34.039Z,9.36
2023-05-14T04:12:34.358Z,9.51
2023-05-14T04:13:34.553Z,9.65
2023-05-14T04:14:34.706Z,9.83
2023-05-14T04:15:35.039Z,9.98
2023-05-14T04:16:35.243Z,10.19
2023-05-14T04:17:35.440Z,10.34
2023-05-14T04:18:35.629Z,10.53
2023-05-14T04:19:35.771Z,10.71
2023-05-14T04:20:35.998Z,10.86
2023-05-14T04:21:36.164Z,11.04
2023-05-14T04:22:36.444Z,11.17
2023-05-14T04:23:36.551Z,11.29
2023-05-14T04:24:36.711Z,11.37
2023-05-14T04:25:36.934Z,11.40
2023-05-14T04:26:37.109Z,11.43
2023-05-14T04:27:37.268Z,11.55
2023-05-14T04:28:37.461Z,11.65
2023-05-14T04:29:37.658Z,11.78
2023-05-14T04:30:37.883Z,11.88
2023-05-14T04:31:38.061Z,12.02
2023-05-14T04:32:38.277Z,12.13
2023-05-14T04:33:38.386Z,12.25
2023-05-14T04:34:38.568Z,12.40
2023-05-14T04:35:38.761Z,12.50
2023-05-14T04:36:38.924Z,12.58
2023-05-14T04:37:39.129Z,12.72
2023-05-14T04:38:39.315Z,12.79
2023-05-14T04:39:39.520Z,12.87
2023-05-14T04:40:39.720Z,12.80
2023-05-14T04:41:39.915Z,12.90
2023-05-14T04:42:40.068Z,12.90
2023-05-14T04:43:40.274Z,13.01
2023-05-14T04:44:40.504Z,13.16
2023-05-14T04:45:40.716Z,13.23
2023-05-14T04:46:40.840Z,13.22
2023-05-14T04:47:41.010Z,13.31
2023-05-14T04:48:41.184Z,13.39
2023-05-14T04:49:41.421Z,13.47
2023-05-14T04:50:41.590Z,13.37
2023-05-14T04:51:41.730Z,13.39
2023-05-14T04:52:41.922Z,13.44
2023-05-14T04:53:42.127Z,13.54
2023-05-14T04:54:42.331Z,13.62
2023-05-14T04:55:42.496Z,13.70
2023-05-14T04:56:42.653Z,13.85
2023-05-14T04:57:42.856Z,13.81
2023-05-14T04:58:43.056Z,13.77
2023-05-14T04:59:43.405Z,13.90
2023-05-14T05:00:43.452Z,14.00
2023-05-14T05:01:43.671Z,14.20
2023-05-14T05:02:43.879Z,14.32
2023-05-14T05:03:44.042Z,14.45
2023-05-14T05:04:44.192Z,14.63
2023-05-14T05:05:44.384Z,14.69
2023-05-14T05:06:44.549Z,14.78
2023-05-14T05:07:44.741Z,14.77
2023-05-14T05:08:44.937Z,14.72
2023-05-14T05:09:45.134Z,14.72
2023-05-14T05:10:45.385Z,14.79
2023-05-14T05:11:45.513Z,14.82
2023-05-14T05:12:45.696Z,14.81
2023-05-14T05:13:45.911Z,14.79
2023-05-14T05:14:46.074Z,14.59
2023-05-14T05:15:46.323Z,14.45
2023-05-14T05:16:46.453Z,14.54
2023-05-14T05:17:46.723Z,14.36
2023-05-14T05:18:46.897Z,14.41
2023-05-14T05:19:47.090Z,14.58
2023-05-14T05:20:47.244Z,14.77
2023-05-14T05:21:47.475Z,14.91
2023-05-14T05:22:47.579Z,15.10
2023-05-14T05:23:47.760Z,15.21
2023-05-14T05:24:49.754Z,15.24
2023-05-14T05:25:48.129Z,15.43
2023-05-14T05:26:48.284Z,15.52
2023-05-14T05:27:48.498Z,15.44
2023-05-14T05:28:48.659Z,15.59
2023-05-14T05:29:48.894Z,15.70
2023-05-14T05:30:49.065Z,15.80
2023-05-14T05:31:49.378Z,15.86
2023-05-14T05:32:49.429Z,16.02
2023-05-14T05:33:49.591Z,16.09
2023-05-14T05:34:49.791Z,16.16
2023-05-14T05:35:50.020Z,16.20
2023-05-14T05:36:50.233Z,16.17
2023-05-14T05:37:50.354Z,16.10
2023-05-14T05:38:50.534Z,16.31
2023-05-14T05:39:50.751Z,16.36
2023-05-14T05:40:50.981Z,16.35
2023-05-14T05:41:51.131Z,16.28
2023-05-14T05:42:51.291Z,16.43
2023-05-14T05:43:51.526Z,16.51
2023-05-14T05:44:51.663Z,16.57
2023-05-14T05:45:51.893Z,16.74
2023-05-14T05:46:52.078Z,16.89
2023-05-14T05:47:52.262Z,17.05
2023-05-14T05:48:52.442Z,17.15
2023-05-14T05:49:52.634Z,17.38
2023-05-14T05:50:52.868Z,17.41
2023-05-14T05:51:52.986Z,17.63
2023-05-14T05:52:53.185Z,17.74
2023-05-14T05:53:53.381Z,17.72
2023-05-14T05:54:53.678Z,17.64
2023-05-14T05:55:53.792Z,17.44
2023-05-14T05:56:53.958Z,16.97
2023-05-14T05:57:54.180Z,16.60
2023-05-14T05:58:54.319Z,16.54
2023-05-14T05:59:54.493Z,16.61
2023-05-14T06:00:54.674Z,16.57
2023-05-14T06:01:54.905Z,16.56
2023-05-14T06:02:55.077Z,16.61
2023-05-14T06:03:55.222Z,16.74
2023-05-14T06:04:55.478Z,16.72
2023-05-14T06:05:55.625Z,16.81
2023-05-14T06:06:55.778Z,16.87
2023-05-14T06:07:55.986Z,16.83
2023-05-14T06:08:56.187Z,16.99
2023-05-14T06:09:56.370Z,17.08
2023-05-14T06:10:56.583Z,17.27
2023-05-14T06:11:56.730Z,17.38
2023-05-14T06:12:56.927Z,17.39
2023-05-14T06:13:57.118Z,17.56
2023-05-14T06:14:57.334Z,17.54
2023-05-14T06:15:57.525Z,17.38
2023-05-14T06:16:57.764Z,17.31
2023-05-14T06:17:57.896Z,17.39
2023-05-14T06:18:58.063Z,17.06
2023-05-14T06:19:58.246Z,16.90
2023-05-14T06:20:58.440Z,16.94
2023-05-14T06:21:58.599Z,17.06
2023-05-14T06:22:58.798Z,17.14
2023-05-14T06:23:58.963Z,17.11
2023-05-14T06:24:59.156Z,17.15
2023-05-14T06:25:59.371Z,17.20
2023-05-14T06:26:59.527Z,17.09
2023-05-14T06:27:59.731Z,16.66
2023-05-14T06:28:59.912Z,16.47
2023-05-14T06:30:00.156Z,16.54
2023-05-14T06:31:00.312Z,16.54
2023-05-14T06:32:00.629Z,16.51
2023-05-14T06:33:00.682Z,16.61
2023-05-14T06:34:00.828Z,16.71
2023-05-14T06:35:01.035Z,16.72
2023-05-14T06:36:01.343Z,16.84
2023-05-14T06:37:01.399Z,16.76
2023-05-14T06:38:01.594Z,16.72
2023-05-14T06:39:01.775Z,16.84
2023-05-14T06:40:01.996Z,16.87
2023-05-14T06:41:02.226Z,17.06
2023-05-14T06:42:02.331Z,17.16
2023-05-14T06:43:02.531Z,16.99
2023-05-14T06:44:02.691Z,16.94
2023-05-14T06:45:02.891Z,17.05
2023-05-14T06:46:03.125Z,17.09
2023-05-14T06:47:03.269Z,17.08
2023-05-14T06:48:03.513Z,17.24
2023-05-14T06:49:03.669Z,17.39
2023-05-14T06:50:03.818Z,17.54
2023-05-14T06:51:04.041Z,17.42
2023-05-14T06:52:04.205Z,17.33
2023-05-14T06:53:04.403Z,17.33
2023-05-14T06:54:04.578Z,17.42
2023-05-14T06:55:04.783Z,17.56
2023-05-14T06:56:04.929Z,17.60
2023-05-14T06:57:05.110Z,17.51
2023-05-14T06:58:05.318Z,17.59
2023-05-14T06:59:05.504Z,17.76
2023-05-14T07:00:05.671Z,17.97
2023-05-14T07:01:05.907Z,18.15
2023-05-14T07:02:06.057Z,18.22
2023-05-14T07:03:06.312Z,18.20
2023-05-14T07:04:06.485Z,18.08
2023-05-14T07:05:06.629Z,18.10
2023-05-14T07:06:06.843Z,18.01
2023-05-14T07:07:07.007Z,18.10
2023-05-14T07:08:07.191Z,18.05
2023-05-14T07:09:07.368Z,18.18
2023-05-14T07:10:07.543Z,18.33
2023-05-14T07:11:07.759Z,18.08
2023-05-14T07:12:07.896Z,18.16
2023-05-14T07:13:08.070Z,18.35
2023-05-14T07:14:08.256Z,18.47
2023-05-14T07:15:08.419Z,18.49
2023-05-14T07:16:08.641Z,18.31
2023-05-14T07:17:08.804Z,18.43
2023-05-14T07:18:09.055Z,18.40
2023-05-14T07:19:09.209Z,18.50
2023-05-14T07:20:09.381Z,18.63
2023-05-14T07:21:09.581Z,18.70
2023-05-14T07:22:09.747Z,18.83
2023-05-14T07:23:09.922Z,18.89
2023-05-14T07:24:10.138Z,18.90
2023-05-14T07:25:10.310Z,18.62
2023-05-14T07:26:10.532Z,18.68
2023-05-14T07:27:10.662Z,18.70
2023-05-14T07:28:10.849Z,18.81
2023-05-14T07:29:11.025Z,18.83
2023-05-14T07:30:11.199Z,18.77
2023-05-14T07:31:11.433Z,18.78
2023-05-14T07:32:13.967Z,18.88
2023-05-14T07:33:11.791Z,18.98
2023-05-14T07:34:11.972Z,19.11
2023-05-14T07:35:12.148Z,19.14
2023-05-14T07:36:12.345Z,19.11
2023-05-14T07:37:12.532Z,19.12
2023-05-14T07:38:12.716Z,19.21
2023-05-14T07:39:12.886Z,19.24
2023-05-14T07:40:13.071Z,19.31
2023-05-14T07:41:13.267Z,19.30
2023-05-14T07:42:21.801Z,19.09
2023-05-14T07:43:13.644Z,18.98
2023-05-14T07:44:13.854Z,19.15
2023-05-14T07:45:13.998Z,19.18
2023-05-14T07:46:14.239Z,19.19
2023-05-14T07:47:14.439Z,19.26
2023-05-14T07:48:14.798Z,19.24
2023-05-14T07:49:14.774Z,19.40
2023-05-14T07:50:14.967Z,19.51
2023-05-14T07:51:15.186Z,19.47
2023-05-14T07:52:15.322Z,19.30
2023-05-14T07:53:15.501Z,19.34
2023-05-14T07:54:15.686Z,19.22
2023-05-14T07:55:15.857Z,19.33
2023-05-14T07:56:16.094Z,19.39
2023-05-14T07:57:16.262Z,19.34
2023-05-14T07:58:16.433Z,19.49
2023-05-14T07:59:16.608Z,19.54
2023-05-14T08:00:16.820Z,19.63
2023-05-14T08:01:16.990Z,19.64
2023-05-14T08:02:17.446Z,19.63
2023-05-14T08:03:17.429Z,19.56
2023-05-14T08:04:17.613Z,19.63
2023-05-14T08:05:17.735Z,19.70
2023-05-14T08:06:17.938Z,19.76
2023-05-14T08:07:18.120Z,19.77
2023-05-14T08:08:18.299Z,19.82
2023-05-14T08:09:18.530Z,19.86
2023-05-14T08:10:18.693Z,19.92
2023-05-14T08:11:18.996Z,19.91
2023-05-14T08:12:19.091Z,19.95
2023-05-14T08:13:19.269Z,19.95
2023-05-14T08:14:19.476Z,19.95
2023-05-14T08:15:19.663Z,19.99
2023-05-14T08:16:19.910Z,19.81
2023-05-14T08:17:20.033Z,19.85
2023-05-14T08:18:20.226Z,20.04
2023-05-14T08:19:20.430Z,20.00
2023-05-14T08:20:20.635Z,20.11
2023-05-14T08:21:20.837Z,20.21
2023-05-14T08:22:21.018Z,20.26
2023-05-14T08:23:21.218Z,20.32
2023-05-14T08:24:21.403Z,19.94
2023-05-14T08:25:21.632Z,19.96
2023-05-14T08:26:21.832Z,19.69
2023-05-14T08:27:21.993Z,19.76
2023-05-14T08:28:22.199Z,19.92
2023-05-14T08:29:22.424Z,20.03
2023-05-14T08:30:23.061Z,20.18
2023-05-14T08:31:22.920Z,20.25
2023-05-14T08:32:24.150Z,20.07
2023-05-14T08:33:23.180Z,19.86
2023-05-14T08:34:23.381Z,20.03
2023-05-14T08:35:23.586Z,20.04
2023-05-14T08:36:23.795Z,19.85
2023-05-14T08:37:24.005Z,19.89
2023-05-14T08:38:24.196Z,20.03
2023-05-14T08:39:24.392Z,19.96
2023-05-14T08:40:24.773Z,20.19
2023-05-14T08:41:24.783Z,20.25
2023-05-14T08:42:24.980Z,20.25
2023-05-14T08:43:25.163Z,20.16
2023-05-14T08:44:25.352Z,20.47
2023-05-14T08:45:25.554Z,20.65
2023-05-14T08:46:25.778Z,20.48
2023-05-14T08:47:26.003Z,20.32
2023-05-14T08:48:26.247Z,20.52
2023-05-14T08:49:26.343Z,20.77
2023-05-14T08:50:26.687Z,20.99
2023-05-14T08:51:26.783Z,20.84
2023-05-14T08:52:26.931Z,20.43
2023-05-14T08:53:27.114Z,20.62
2023-05-14T08:54:27.316Z,20.85
2023-05-14T08:55:27.502Z,21.03
2023-05-14T08:56:27.725Z,21.22
2023-05-14T08:57:27.894Z,21.39
2023-05-14T08:58:28.076Z,21.54
2023-05-14T08:59:28.283Z,21.70
2023-05-14T09:00:28.528Z,21.77
2023-05-14T09:01:28.781Z,21.82
2023-05-14T09:02:28.882Z,21.89
2023-05-14T09:03:29.203Z,21.66
2023-05-14T09:04:29.244Z,21.40
2023-05-14T09:05:29.451Z,21.29
2023-05-14T09:06:29.682Z,21.32
2023-05-14T09:07:29.849Z,21.18
2023-05-14T09:08:30.065Z,20.60
2023-05-14T09:09:30.242Z,20.52
2023-05-14T09:10:30.462Z,20.82
2023-05-14T09:11:30.663Z,21.07
2023-05-14T09:12:30.836Z,21.27
2023-05-14T09:13:31.029Z,21.32
2023-05-14T09:14:31.199Z,21.00
2023-05-14T09:15:31.422Z,21.30
2023-05-14T09:16:31.632Z,21.69
2023-05-14T09:17:31.828Z,21.88
2023-05-14T09:18:32.028Z,22.10
2023-05-14T09:19:32.164Z,22.38
2023-05-14T09:20:32.386Z,22.38
2023-05-14T09:21:33.603Z,22.69
2023-05-14T09:22:32.759Z,21.99
2023-05-14T09:23:33.011Z,21.33
2023-05-14T09:24:33.206Z,21.32
2023-05-14T09:25:33.387Z,21.42
2023-05-14T09:26:33.623Z,21.54
2023-05-14T09:27:33.871Z,21.75
2023-05-14T09:28:34.003Z,21.76
2023-05-14T09:29:34.249Z,21.24
2023-05-14T09:30:34.420Z,21.29
2023-05-14T09:31:34.655Z,21.20
2023-05-14T09:32:34.843Z,21.46
2023-05-14T09:33:35.027Z,21.55
2023-05-14T09:34:35.266Z,21.70
2023-05-14T09:35:35.433Z,21.35
2023-05-14T09:36:35.647Z,21.02
2023-05-14T09:37:35.838Z,20.87
2023-05-14T09:38:36.046Z,20.95
2023-05-14T09:39:36.283Z,20.87
2023-05-14T09:40:36.468Z,21.07
2023-05-14T09:41:36.727Z,21.07
2023-05-14T09:42:36.866Z,20.93
2023-05-14T09:43:37.079Z,20.78
2023-05-14T09:44:37.317Z,20.88
2023-05-14T09:45:37.503Z,21.17
2023-05-14T09:46:37.726Z,21.22
2023-05-14T09:47:37.968Z,21.27
2023-05-14T09:48:38.178Z,21.30
2023-05-14T09:49:38.299Z,21.17
2023-05-14T09:50:38.493Z,20.87
2023-05-14T09:51:38.730Z,20.72
2023-05-14T09:52:38.916Z,20.77
2023-05-14T09:53:39.113Z,20.70
2023-05-14T09:54:39.362Z,20.56
2023-05-14T09:55:39.523Z,20.56
2023-05-14T09:56:39.735Z,20.63
2023-05-14T09:57:39.942Z,20.81
2023-05-14T09:58:40.153Z,20.99
2023-05-14T09:59:40.363Z,21.22
2023-05-14T10:00:40.568Z,21.09
2023-05-14T10:01:40.829Z,20.70
2023-05-14T10:02:41.152Z,21.02
2023-05-14T10:03:41.188Z,20.90
2023-05-14T10:04:41.447Z,20.80
2023-05-14T10:05:41.575Z,21.02
2023-05-14T10:06:41.847Z,21.21
2023-05-14T10:07:42.019Z,21.54
2023-05-14T10:08:42.175Z,21.98
2023-05-14T10:09:42.396Z,21.73
2023-05-14T10:10:42.589Z,21.67
2023-05-14T10:11:42.806Z,21.30
2023-05-14T10:12:42.982Z,21.55
2023-05-14T10:13:43.199Z,21.91
2023-05-14T10:14:43.414Z,22.04
2023-05-14T10:15:43.619Z,21.82
2023-05-14T10:16:43.865Z,21.67
2023-05-14T10:17:44.113Z,21.79
2023-05-14T10:18:44.260Z,21.85
2023-05-14T10:19:44.448Z,21.99
2023-05-14T10:20:44.650Z,21.96
2023-05-14T10:21:44.851Z,21.60
2023-05-14T10:22:45.036Z,21.32
2023-05-14T10:23:45.235Z,21.45
2023-05-14T10:24:45.460Z,21.48
2023-05-14T10:25:45.640Z,21.30
2023-05-14T10:26:45.866Z,21.15
2023-05-14T10:27:46.058Z,21.43
2023-05-14T10:28:46.232Z,21.73
2023-05-14T10:29:46.424Z,21.89
2023-05-14T10:30:46.737Z,21.93
2023-05-14T10:31:47.082Z,22.11
2023-05-14T10:32:47.041Z,22.47
2023-05-14T10:33:47.181Z,22.63
2023-05-14T10:34:47.374Z,22.68
2023-05-14T10:35:47.588Z,22.47
2023-05-14T10:36:47.802Z,22.13
2023-05-14T10:37:48.015Z,21.89
2023-05-14T10:38:48.225Z,22.08
2023-05-14T10:39:48.452Z,22.17
2023-05-14T10:40:48.635Z,22.35
2023-05-14T10:41:48.852Z,22.81
2023-05-14T10:42:49.078Z,22.93
2023-05-14T10:43:49.293Z,22.13
2023-05-14T10:44:49.539Z,21.80
2023-05-14T10:45:49.713Z,21.88
2023-05-14T10:46:49.957Z,22.29
2023-05-14T10:47:50.165Z,22.22
2023-05-14T10:48:50.325Z,22.65
2023-05-14T10:49:50.539Z,23.03
2023-05-14T10:50:50.755Z,23.43
2023-05-14T10:51:50.897Z,23.43
2023-05-14T10:52:51.127Z,23.39
2023-05-14T10:53:51.307Z,23.03
2023-05-14T10:54:51.537Z,23.48
2023-05-14T10:55:51.683Z,23.37
2023-05-14T10:56:51.871Z,23.32
2023-05-14T10:57:52.051Z,22.87
2023-05-14T10:58:52.254Z,23.00
2023-05-14T10:59:52.458Z,22.78
2023-05-14T11:00:52.597Z,22.60
2023-05-14T11:01:52.862Z,22.99
2023-05-14T11:02:53.083Z,22.96
2023-05-14T11:03:53.336Z,23.03
2023-05-14T11:04:53.445Z,23.41
2023-05-14T11:05:53.641Z,23.25
2023-05-14T11:06:53.862Z,23.55
2023-05-14T11:07:54.002Z,23.91
2023-05-14T11:08:54.213Z,23.51
2023-05-14T11:09:54.492Z,22.59
2023-05-14T11:10:54.626Z,22.26
2023-05-14T11:11:54.848Z,22.00
2023-05-14T11:12:55.096Z,22.18
2023-05-14T11:13:55.281Z,22.35
2023-05-14T11:14:55.502Z,22.30
2023-05-14T11:15:55.710Z,22.60
2023-05-14T11:16:55.935Z,23.06
2023-05-14T11:17:56.124Z,23.18
2023-05-14T11:18:56.277Z,22.96
2023-05-14T11:19:56.493Z,22.62
2023-05-14T11:20:56.739Z,21.91
2023-05-14T11:21:56.904Z,21.57
2023-05-14T11:22:57.109Z,21.67
2023-05-14T11:23:57.331Z,21.85
2023-05-14T11:24:57.568Z,21.82
2023-05-14T11:25:57.733Z,21.91
2023-05-14T11:26:57.897Z,21.88
2023-05-14T11:27:58.090Z,21.93
2023-05-14T11:28:58.262Z,21.40
2023-05-14T11:29:58.471Z,21.37
2023-05-14T11:30:58.648Z,21.45
2023-05-14T11:31:58.860Z,21.36
2023-05-14T11:33:01.764Z,21.17
2023-05-14T11:33:59.237Z,21.18
2023-05-14T11:34:59.449Z,21.29
2023-05-14T11:35:59.593Z,21.39
2023-05-14T11:36:59.778Z,21.36
2023-05-14T11:37:59.974Z,21.15
2023-05-14T11:39:00.191Z,21.17
2023-05-14T11:40:00.358Z,21.05
2023-05-14T11:41:00.550Z,20.99
2023-05-14T11:42:00.749Z,20.88
2023-05-14T11:43:00.924Z,20.69
2023-05-14T11:44:01.114Z,20.80
2023-05-14T11:45:01.333Z,20.92
2023-05-14T11:46:01.529Z,20.93
2023-05-14T11:47:01.699Z,20.93
2023-05-14T11:48:01.954Z,20.99
2023-05-14T11:49:02.081Z,20.90
2023-05-14T11:50:02.304Z,20.84
2023-05-14T11:51:02.455Z,20.93
2023-05-14T11:52:02.661Z,21.06
2023-05-14T11:53:02.893Z,21.14
2023-05-14T11:54:03.076Z,21.27
2023-05-14T11:55:03.355Z,21.24
2023-05-14T11:56:03.486Z,21.35
2023-05-14T11:57:03.690Z,21.45
2023-05-14T11:58:03.890Z,21.46
2023-05-14T11:59:04.119Z,21.43
2023-05-14T12:00:04.443Z,21.60
2023-05-14T12:01:04.500Z,21.20
2023-05-14T12:02:04.753Z,21.18
2023-05-14T12:03:04.981Z,20.87
2023-05-14T12:04:05.190Z,20.75
2023-05-14T12:05:05.306Z,20.81
2023-05-14T12:06:05.490Z,21.02
2023-05-14T12:07:05.653Z,21.30
2023-05-14T12:08:05.869Z,21.42
2023-05-14T12:09:06.090Z,21.32
2023-05-14T12:10:06.320Z,21.42
2023-05-14T12:11:06.501Z,21.35
2023-05-14T12:12:06.708Z,21.29
2023-05-14T12:13:06.907Z,21.15
2023-05-14T12:14:07.098Z,21.20
2023-05-14T12:15:07.321Z,21.50
2023-05-14T12:16:07.530Z,21.73
2023-05-14T12:17:07.699Z,21.91
2023-05-14T12:19:08.150Z,21.51
2023-05-14T12:20:08.331Z,21.69
2023-05-14T12:21:08.577Z,21.79
2023-05-14T12:22:08.693Z,21.51
2023-05-14T12:23:08.893Z,21.21
2023-05-14T12:24:09.318Z,21.09
2023-05-14T12:25:09.339Z,20.88
2023-05-14T12:26:09.498Z,20.75
2023-05-14T12:27:09.663Z,20.77
2023-05-14T12:28:09.838Z,21.18
2023-05-14T12:29:10.035Z,21.60
2023-05-14T12:31:10.526Z,21.91
2023-05-14T12:32:10.703Z,21.75
2023-05-14T12:33:10.945Z,21.77
2023-05-14T12:34:11.085Z,21.85
2023-05-14T12:35:11.316Z,21.79
2023-05-14T12:36:21.355Z,21.64
2023-05-14T12:37:11.688Z,21.45
2023-05-14T12:38:11.902Z,21.40
2023-05-14T12:39:12.123Z,21.69
2023-05-14T12:40:12.333Z,21.73
2023-05-14T12:41:12.496Z,21.88
2023-05-14T12:42:12.690Z,21.88
2023-05-14T12:43:12.860Z,21.76
2023-05-14T12:44:13.056Z,22.11
2023-05-14T12:45:13.324Z,22.38
2023-05-14T12:46:13.485Z,22.57
2023-05-14T12:47:13.716Z,22.07
2023-05-14T12:48:13.905Z,22.23
2023-05-14T12:49:14.064Z,22.39
2023-05-14T12:50:14.309Z,22.44
2023-05-14T12:51:14.445Z,22.32
2023-05-14T12:52:22.656Z,22.26
2023-05-14T12:53:14.856Z,22.62
2023-05-14T12:54:15.085Z,23.12
2023-05-14T12:55:15.300Z,23.48
2023-05-14T12:56:15.443Z,23.20
2023-05-14T12:57:15.618Z,23.40
2023-05-14T12:58:15.799Z,23.09
2023-05-14T12:59:16.037Z,22.99
2023-05-14T13:00:16.280Z,23.24
2023-05-14T13:01:16.495Z,22.94
2023-05-14T13:02:17.434Z,22.96
2023-05-14T13:03:16.842Z,22.62